• Join FlightAware (Why Join?)
  • Login
  • US Flag 
10:12AM EDT


 

Airport Tracker/Info


-or-


 

Live Flight TrackerFlight Track Log ✈ FLG3780 ✈ 28-Jun-2013 ✈ KDTW - KMHT

Flight Track Log - Related Links

Times and Time Zones

All times are in EDT time to prevent confusion due to time zone crossing. See the FLG3780 flight status page for this flight to view local times or setup timezone preferences in your user account.

Time Position Orientation Groundspeed Altitude Reporting Facility
EDT Latitude Longitude Course Direction KTS MPH feet Rate Location/Type
04:13PM 42.1953 -83.3608 56° Northeast 173 199 1,400  Level Cleveland Center
04:14PM 42.1433 -83.3556 176° South 229 264 2,900 1,920 Climbing Cleveland Center
04:16PM 42.2808 -82.9068 74° East  Level FlightAware Approximate
04:16PM 42.1650 -83.1731 90° East  Level Estimated
04:16PM 42.0000 -83.3269 90° East 310 357 7,100  Level Cleveland Center
04:17PM 42.3092 -82.7574 78° East  Level FlightAware Approximate
04:18PM 42.3324 -82.6062 78° East  Level FlightAware Approximate
04:18PM 42.0144 -83.1572 83° East 334 384 10,000  Level Cleveland Center
04:19PM 42.3620 -82.4594 56° Northeast  Level FlightAware Approximate
04:19PM 42.0461 -83.0383 70° East 324 373 11,200  Level Cleveland Center
04:20PM 42.0822 -82.9136 69° East 338 389 12,700 1,620 Climbing Cleveland Center
04:21PM 42.1203 -82.7836 68° East 357 411 14,500 1,620 Climbing Cleveland Center
04:22PM 42.1622 -82.6561 66° East 362 417 16,000 1,320 Climbing Cleveland Center
04:23PM 42.2103 -82.5258 63° Northeast 372 428 17,200 1,320 Climbing Cleveland Center
04:24PM 42.2564 -82.3925 65° Northeast 383 441 18,700 1,320 Climbing Cleveland Center
04:25PM 42.3042 -82.2592 64° Northeast 388 447 19,900 1,260 Climbing Cleveland Center
04:26PM 42.3314 -82.1028 77° East 388 447 21,300 1,080 Climbing Cleveland Center
04:27PM 42.3769 -81.9689 65° Northeast 382 440 22,100 780 Climbing Cleveland Center
04:28PM 42.4386 -81.8436 56° Northeast 392 451 22,900 780 Climbing Cleveland Center
04:29PM 42.4525 -81.7089 82° East 392 451 23,700 660 Climbing Cleveland Center
04:30PM 42.4644 -81.5542 84° East 398 458 24,300 600 Climbing Cleveland Center
04:31PM 42.4739 -81.3967 85° East 405 466 25,000 600 Climbing Cleveland Center
04:32PM 42.4833 -81.2419 85° East 413 475 25,600 600 Climbing Cleveland Center
04:33PM 42.4967 -81.0900 83° East 413 475 26,200 600 Climbing Cleveland Center
04:34PM 42.5056 -80.9267 86° East 420 483 26,800 600 Climbing Cleveland Center
04:35PM 42.5164 -80.7578 85° East 420 483 27,400 600 Climbing Cleveland Center
04:36PM 42.5269 -80.6028 85° East 420 483 28,000 600 Climbing Cleveland Center
04:37PM 42.5372 -80.4481 85° East 420 483 28,600 600 Climbing Cleveland Center
04:38PM 42.5453 -80.2900 86° East 414 476 29,200 600 Climbing Cleveland Center
04:39PM 42.5553 -80.1378 85° East 408 470 29,800 540 Climbing Cleveland Center
04:40PM 42.5628 -79.9883 86° East 402 463 30,300 480 Climbing Cleveland Center
04:41PM 42.5744 -79.8361 84° East 402 463 30,800 300 Climbing Cleveland Center
04:42PM 42.5839 -79.6808 85° East 402 463 31,000 60 Climbing Cleveland Center
04:43PM 42.5908 -79.5256 86° East 402 463 31,000  Level Cleveland Center
04:44PM 42.5997 -79.3647 86° East 407 468 31,000  Level Cleveland Center
04:45PM 42.6083 -79.2039 86° East 418 481 31,000  Level Cleveland Center
04:46PM 42.6042 -79.0431 92° East 423 487 31,000  Level Cleveland Center
04:47PM 42.5872 -78.8828 98° East 423 487 31,000  Level Cleveland Center
04:48PM 42.5683 -78.7225 99° East 423 487 31,000  Level Cleveland Center
04:49PM 42.5531 -78.5622 97° East 423 487 31,000  Level Cleveland Center
04:50PM 42.5500 -78.3989 91° East 423 487 31,000  Level Cleveland Center
04:51PM 42.5594 -78.2350 85° East 423 487 31,000  Level Cleveland Center
04:52PM 42.5706 -78.0711 85° East 428 493 31,000  Level Cleveland Center
04:53PM 42.5792 -77.9072 86° East 428 493 31,000  Level Cleveland Center
04:56PM 42.6028 -77.4903 85° East 468 539 31,000  Level Boston Center
04:57PM 42.6136 -77.2908 86° East 435 501 31,000  Level Boston Center
04:58PM 42.6228 -77.1250 86° East 448 516 31,000  Level Boston Center
04:59PM 42.6317 -76.9561 86° East 448 516 31,000  Level Boston Center
05:00PM 42.6403 -76.7844 86° East 440 506 31,000  Level Boston Center
05:01PM 42.6489 -76.6128 86° East 440 506 31,000  Level Boston Center
05:02PM 42.6539 -76.4747 87° East 445 512 31,000  Level Boston Center
05:03PM 42.6633 -76.2608 86° East 457 526 31,000  Level Boston Center
05:04PM 42.6753 -76.0892 85° East 457 526 31,000  Level Boston Center
05:05PM 42.6789 -75.9058 88° East 467 537 31,000  Level Boston Center
05:06PM 42.6864 -75.7281 87° East 472 543 31,000  Level Boston Center
05:07PM 42.6917 -75.5419 88° East 477 549 31,000  Level Boston Center
05:08PM 42.7000 -75.3783 86° East 483 556 31,000  Level Boston Center
05:09PM 42.7067 -75.1950 87° East 483 556 31,000 -60 Level Boston Center
05:10PM 42.7131 -75.0117 87° East 483 556 30,900 -720 Descending Boston Center
05:11PM 42.7464 -74.8292 76° East 483 556 29,600 -900 Descending Boston Center
05:12PM 42.7833 -74.6525 74° East 483 556 29,000 -300 Descending Boston Center
05:13PM 42.8206 -74.4386 77° East 483 556 29,000 -300 Level Boston Center
05:14PM 42.8611 -74.2586 73° East 483 556 28,400 -900 Descending Boston Center
05:15PM 42.8950 -74.0839 75° East 483 556 27,200 -1,860 Descending Boston Center
05:16PM 42.9119 -73.9142 82° East 474 545 24,700 -1,620 Descending Boston Center
05:17PM 42.8992 -73.7522 96° East 442 509 24,000 -900 Descending Boston Center
05:18PM 42.8864 -73.5878 96° East 435 501 22,900 -1,320 Descending Boston Center
05:19PM 42.8733 -73.4289 96° East 435 501 21,400 -1,500 Descending Boston Center
05:20PM 42.8683 -73.2728 92° East 420 483 19,900 -1,200 Descending Boston Center
05:21PM 42.8547 -73.1197 97° East 415 478 19,000 -480 Descending Boston Center
05:22PM 42.8472 -72.9725 94° East 404 465 19,000 -900 Level Boston Center
05:23PM 42.8333 -72.8081 97° East 404 465 17,300 -1,800 Descending Boston Center
05:24PM 42.8233 -72.6608 95° East 399 459 15,400 -1,920 Descending Boston Center
05:25PM 42.8131 -72.5164 95° East 387 445 13,500 -1,800 Descending Boston Center
05:26PM 42.8317 -72.3806 79° East 377 434 11,900 -1,320 Descending Boston Center
05:27PM 42.8464 -72.2589 81° East 355 409 10,900 -1,080 Descending Boston Center
05:28PM 42.8606 -72.1428 81° East 321 369 9,800 -1,020 Descending Boston Center
05:29PM 42.8747 -72.0264 81° East 316 364 8,900 -1,020 Descending Boston Center
05:30PM 42.9014 -71.9158 72° East 306 352 7,800 -1,080 Descending Boston Center
05:31PM 42.9553 -71.8217 52° Northeast 301 346 6,800 -1,200 Descending Boston Center
05:32PM 43.0089 -71.7331 50° Northeast 306 352 5,500 -1,320 Descending Boston Center
05:33PM 43.0583 -71.6472 52° Northeast 301 346 4,200 -1,440 Descending Boston Center
05:33PM 43.0833 -71.6000 54° Northeast 275 316 3,300 -1,020 Descending KA90
05:35PM 43.1000 -71.5167 75° East 231 266 2,500 -780 Descending KA90